sensor_id;sensor_type;location;lat;lon;timestamp;pressure;altitude;pressure_sealevel;temperature;humidity
76815;BME280;65768;49.906;19.384;2022-12-24T00:01:27;97298.36;;;5.09;88.29
76815;BME280;65768;49.906;19.384;2022-12-24T00:03:55;97294.42;;;5.14;88.29
76815;BME280;65768;49.906;19.384;2022-12-24T00:06:23;97290.95;;;5.12;88.25
76815;BME280;65768;49.906;19.384;2022-12-24T00:08:52;97287.79;;;5.03;88.22
76815;BME280;65768;49.906;19.384;2022-12-24T00:11:20;97277.00;;;4.93;88.38
76815;BME280;65768;49.906;19.384;2022-12-24T00:13:48;97273.35;;;4.88;88.85
76815;BME280;65768;49.906;19.384;2022-12-24T00:16:16;97266.77;;;4.87;88.72
76815;BME280;65768;49.906;19.384;2022-12-24T00:18:44;97259.81;;;4.80;89.00
76815;BME280;65768;49.906;19.384;2022-12-24T00:21:14;97263.02;;;4.71;88.75
76815;BME280;65768;49.906;19.384;2022-12-24T00:23:42;97260.04;;;4.64;89.87
76815;BME280;65768;49.906;19.384;2022-12-24T00:26:12;97256.23;;;4.64;89.85
76815;BME280;65768;49.906;19.384;2022-12-24T00:28:40;97250.01;;;4.62;89.37
76815;BME280;65768;49.906;19.384;2022-12-24T00:31:11;97251.77;;;4.65;90.96
76815;BME280;65768;49.906;19.384;2022-12-24T00:33:40;97254.84;;;4.63;90.47
76815;BME280;65768;49.906;19.384;2022-12-24T00:36:08;97248.09;;;4.60;90.61
76815;BME280;65768;49.906;19.384;2022-12-24T00:38:37;97242.04;;;4.58;90.58
76815;BME280;65768;49.906;19.384;2022-12-24T00:41:06;97238.59;;;4.57;90.37
76815;BME280;65768;49.906;19.384;2022-12-24T00:43:57;97239.91;;;4.51;90.84
76815;BME280;65768;49.906;19.384;2022-12-24T00:46:27;97242.80;;;4.47;90.81
76815;BME280;65768;49.906;19.384;2022-12-24T00:48:55;97242.96;;;4.45;90.55
76815;BME280;65768;49.906;19.384;2022-12-24T00:51:24;97238.67;;;4.46;91.31
76815;BME280;65768;49.906;19.384;2022-12-24T00:53:52;97230.42;;;4.51;91.83
76815;BME280;65768;49.906;19.384;2022-12-24T00:56:21;97229.23;;;4.56;92.23
76815;BME280;65768;49.906;19.384;2022-12-24T00:58:50;97230.13;;;4.58;91.93
76815;BME280;65768;49.906;19.384;2022-12-24T01:01:18;97226.39;;;4.66;92.05
76815;BME280;65768;49.906;19.384;2022-12-24T01:03:46;97219.38;;;4.75;92.03
76815;BME280;65768;49.906;19.384;2022-12-24T01:06:19;97210.95;;;4.81;92.22
76815;BME280;65768;49.906;19.384;2022-12-24T01:08:51;97210.13;;;4.82;91.68
76815;BME280;65768;49.906;19.384;2022-12-24T01:11:19;97214.76;;;4.79;91.04
76815;BME280;65768;49.906;19.384;2022-12-24T01:13:47;97215.10;;;4.80;91.57
76815;BME280;65768;49.906;19.384;2022-12-24T01:16:19;97216.48;;;4.79;91.64
76815;BME280;65768;49.906;19.384;2022-12-24T01:18:47;97217.48;;;4.75;92.35
76815;BME280;65768;49.906;19.384;2022-12-24T01:21:16;97219.03;;;4.75;92.05
76815;BME280;65768;49.906;19.384;2022-12-24T01:23:44;97217.11;;;4.73;91.69
76815;BME280;65768;49.906;19.384;2022-12-24T01:26:12;97222.81;;;4.73;92.04
76815;BME280;65768;49.906;19.384;2022-12-24T01:28:40;97220.59;;;4.75;92.22
76815;BME280;65768;49.906;19.384;2022-12-24T01:31:13;97228.89;;;4.76;92.37
76815;BME280;65768;49.906;19.384;2022-12-24T01:33:42;97217.67;;;4.78;92.18
76815;BME280;65768;49.906;19.384;2022-12-24T01:36:12;97212.83;;;4.75;91.69
76815;BME280;65768;49.906;19.384;2022-12-24T01:38:40;97211.62;;;4.76;91.63
76815;BME280;65768;49.906;19.384;2022-12-24T01:41:21;97211.10;;;4.76;91.71
76815;BME280;65768;49.906;19.384;2022-12-24T01:44:29;97209.52;;;4.71;91.76
76815;BME280;65768;49.906;19.384;2022-12-24T01:47:05;97213.45;;;4.65;91.89
76815;BME280;65768;49.906;19.384;2022-12-24T01:49:35;97214.39;;;4.55;91.42
76815;BME280;65768;49.906;19.384;2022-12-24T01:52:16;97214.17;;;4.47;91.43
76815;BME280;65768;49.906;19.384;2022-12-24T01:54:52;97221.23;;;4.43;90.98
76815;BME280;65768;49.906;19.384;2022-12-24T01:57:24;97218.21;;;4.35;92.36
76815;BME280;65768;49.906;19.384;2022-12-24T01:59:56;97209.38;;;4.31;92.38
76815;BME280;65768;49.906;19.384;2022-12-24T02:02:26;97207.81;;;4.29;91.81
76815;BME280;65768;49.906;19.384;2022-12-24T02:05:00;97195.48;;;4.21;92.41
76815;BME280;65768;49.906;19.384;2022-12-24T02:07:31;97186.48;;;4.17;92.33
76815;BME280;65768;49.906;19.384;2022-12-24T02:10:00;97189.17;;;4.09;91.71
76815;BME280;65768;49.906;19.384;2022-12-24T02:12:31;97184.73;;;3.96;91.42
76815;BME280;65768;49.906;19.384;2022-12-24T02:15:03;97190.27;;;3.95;91.65
76815;BME280;65768;49.906;19.384;2022-12-24T02:17:46;97192.58;;;4.03;92.29
76815;BME280;65768;49.906;19.384;2022-12-24T02:31:57;97178.12;;;3.72;91.18
76815;BME280;65768;49.906;19.384;2022-12-24T02:37:09;97185.77;;;3.79;91.97
76815;BME280;65768;49.906;19.384;2022-12-24T02:39:45;97184.52;;;3.74;91.85
76815;BME280;65768;49.906;19.384;2022-12-24T02:42:19;97182.79;;;3.73;91.83
76815;BME280;65768;49.906;19.384;2022-12-24T02:45:03;97187.09;;;3.72;91.95
76815;BME280;65768;49.906;19.384;2022-12-24T02:47:34;97192.10;;;3.74;92.01
76815;BME280;65768;49.906;19.384;2022-12-24T02:50:06;97197.85;;;3.80;92.09
76815;BME280;65768;49.906;19.384;2022-12-24T02:52:43;97201.95;;;3.78;92.06
76815;BME280;65768;49.906;19.384;2022-12-24T02:58:24;97196.36;;;3.68;91.77
76815;BME280;65768;49.906;19.384;2022-12-24T03:01:21;97205.59;;;3.62;91.45
76815;BME280;65768;49.906;19.384;2022-12-24T03:11:56;97225.58;;;3.62;92.08
76815;BME280;65768;49.906;19.384;2022-12-24T03:14:26;97227.11;;;3.60;91.83
76815;BME280;65768;49.906;19.384;2022-12-24T03:16:57;97226.06;;;3.58;92.46
76815;BME280;65768;49.906;19.384;2022-12-24T03:19:26;97235.71;;;3.59;92.63
76815;BME280;65768;49.906;19.384;2022-12-24T03:21:57;97238.17;;;3.64;92.41
76815;BME280;65768;49.906;19.384;2022-12-24T03:24:26;97239.45;;;3.69;92.24
76815;BME280;65768;49.906;19.384;2022-12-24T03:26:55;97237.36;;;3.68;92.64
76815;BME280;65768;49.906;19.384;2022-12-24T03:29:23;97243.19;;;3.64;92.37
76815;BME280;65768;49.906;19.384;2022-12-24T03:31:59;97248.20;;;3.65;92.52
76815;BME280;65768;49.906;19.384;2022-12-24T03:34:27;97244.14;;;3.72;93.30
76815;BME280;65768;49.906;19.384;2022-12-24T03:36:57;97247.60;;;3.75;92.62
76815;BME280;65768;49.906;19.384;2022-12-24T03:39:25;97247.05;;;3.72;92.36
76815;BME280;65768;49.906;19.384;2022-12-24T03:41:53;97248.59;;;3.69;92.73
76815;BME280;65768;49.906;19.384;2022-12-24T03:44:21;97253.40;;;3.68;92.72
76815;BME280;65768;49.906;19.384;2022-12-24T03:46:49;97252.90;;;3.69;92.84
76815;BME280;65768;49.906;19.384;2022-12-24T03:49:17;97254.98;;;3.72;93.15
76815;BME280;65768;49.906;19.384;2022-12-24T03:51:45;97255.90;;;3.76;92.93
76815;BME280;65768;49.906;19.384;2022-12-24T03:54:13;97256.68;;;3.85;93.61
76815;BME280;65768;49.906;19.384;2022-12-24T03:56:41;97249.83;;;3.88;93.47
76815;BME280;65768;49.906;19.384;2022-12-24T03:59:09;97252.67;;;3.96;93.14
76815;BME280;65768;49.906;19.384;2022-12-24T04:01:37;97258.88;;;3.97;93.20
76815;BME280;65768;49.906;19.384;2022-12-24T04:04:05;97254.79;;;4.01;93.07
76815;BME280;65768;49.906;19.384;2022-12-24T04:06:33;97256.96;;;4.11;92.66
76815;BME280;65768;49.906;19.384;2022-12-24T04:09:01;97257.90;;;4.17;92.68
76815;BME280;65768;49.906;19.384;2022-12-24T04:11:31;97260.02;;;4.23;92.76
76815;BME280;65768;49.906;19.384;2022-12-24T04:13:59;97260.77;;;4.30;92.89
76815;BME280;65768;49.906;19.384;2022-12-24T04:16:27;97258.05;;;4.53;93.18
76815;BME280;65768;49.906;19.384;2022-12-24T04:18:55;97254.27;;;4.78;93.02
76815;BME280;65768;49.906;19.384;2022-12-24T04:21:23;97255.26;;;4.95;92.93
76815;BME280;65768;49.906;19.384;2022-12-24T04:23:51;97247.52;;;5.30;92.92
76815;BME280;65768;49.906;19.384;2022-12-24T04:26:19;97243.59;;;5.77;92.40
76815;BME280;65768;49.906;19.384;2022-12-24T04:28:47;97234.34;;;5.96;91.67
76815;BME280;65768;49.906;19.384;2022-12-24T04:31:16;97234.53;;;6.07;91.36
76815;BME280;65768;49.906;19.384;2022-12-24T04:33:45;97236.11;;;6.16;91.26
76815;BME280;65768;49.906;19.384;2022-12-24T04:36:16;97244.77;;;6.20;91.05
76815;BME280;65768;49.906;19.384;2022-12-24T04:38:45;97244.94;;;6.16;90.93
76815;BME280;65768;49.906;19.384;2022-12-24T04:41:16;97246.18;;;6.29;91.02
76815;BME280;65768;49.906;19.384;2022-12-24T04:43:45;97249.98;;;6.27;90.47
76815;BME280;65768;49.906;19.384;2022-12-24T04:46:16;97250.32;;;6.29;90.58
76815;BME280;65768;49.906;19.384;2022-12-24T04:48:47;97247.22;;;6.37;90.56
76815;BME280;65768;49.906;19.384;2022-12-24T04:51:16;97248.95;;;6.35;90.40
76815;BME280;65768;49.906;19.384;2022-12-24T04:53:44;97250.16;;;6.40;90.42
76815;BME280;65768;49.906;19.384;2022-12-24T04:56:18;97251.23;;;6.55;90.07
76815;BME280;65768;49.906;19.384;2022-12-24T04:58:47;97252.95;;;6.52;89.97
76815;BME280;65768;49.906;19.384;2022-12-24T05:01:24;97260.39;;;6.50;89.82
76815;BME280;65768;49.906;19.384;2022-12-24T05:03:53;97255.72;;;6.51;90.24
76815;BME280;65768;49.906;19.384;2022-12-24T05:06:24;97259.02;;;6.58;90.02
76815;BME280;65768;49.906;19.384;2022-12-24T05:08:54;97253.46;;;6.53;89.99
76815;BME280;65768;49.906;19.384;2022-12-24T05:11:23;97254.50;;;6.58;89.91
76815;BME280;65768;49.906;19.384;2022-12-24T05:13:51;97257.63;;;6.81;89.67
76815;BME280;65768;49.906;19.384;2022-12-24T05:16:21;97260.39;;;6.83;89.37
76815;BME280;65768;49.906;19.384;2022-12-24T05:18:50;97261.60;;;6.85;89.47
76815;BME280;65768;49.906;19.384;2022-12-24T05:21:22;97257.64;;;6.82;89.32
76815;BME280;65768;49.906;19.384;2022-12-24T05:23:51;97268.88;;;6.83;88.90
76815;BME280;65768;49.906;19.384;2022-12-24T05:26:41;97276.15;;;6.73;89.16
76815;BME280;65768;49.906;19.384;2022-12-24T05:29:11;97280.31;;;6.72;89.47
76815;BME280;65768;49.906;19.384;2022-12-24T05:31:40;97280.48;;;6.60;89.03
76815;BME280;65768;49.906;19.384;2022-12-24T05:34:08;97282.39;;;6.68;88.96
76815;BME280;65768;49.906;19.384;2022-12-24T05:36:38;97279.95;;;6.64;89.25
76815;BME280;65768;49.906;19.384;2022-12-24T05:39:19;97271.83;;;6.72;88.78
76815;BME280;65768;49.906;19.384;2022-12-24T05:41:47;97282.91;;;6.75;88.92
76815;BME280;65768;49.906;19.384;2022-12-24T05:44:15;97287.94;;;6.71;88.79
76815;BME280;65768;49.906;19.384;2022-12-24T05:46:44;97288.45;;;6.64;88.72
76815;BME280;65768;49.906;19.384;2022-12-24T05:49:13;97289.66;;;6.58;88.92
76815;BME280;65768;49.906;19.384;2022-12-24T05:51:41;97287.92;;;6.62;88.87
76815;BME280;65768;49.906;19.384;2022-12-24T05:54:09;97287.56;;;6.58;88.89
76815;BME280;65768;49.906;19.384;2022-12-24T05:56:37;97283.09;;;6.74;88.88
76815;BME280;65768;49.906;19.384;2022-12-24T05:59:05;97283.77;;;6.91;88.69
76815;BME280;65768;49.906;19.384;2022-12-24T06:01:33;97286.20;;;7.00;88.18
76815;BME280;65768;49.906;19.384;2022-12-24T06:04:02;97290.36;;;6.95;87.94
76815;BME280;65768;49.906;19.384;2022-12-24T06:06:30;97295.21;;;6.93;88.10
76815;BME280;65768;49.906;19.384;2022-12-24T06:08:58;97299.02;;;7.03;87.97
76815;BME280;65768;49.906;19.384;2022-12-24T06:11:26;97300.76;;;7.04;87.84
76815;BME280;65768;49.906;19.384;2022-12-24T06:13:55;97295.90;;;6.99;87.66
76815;BME280;65768;49.906;19.384;2022-12-24T06:16:23;97299.20;;;7.05;87.82
76815;BME280;65768;49.906;19.384;2022-12-24T06:18:52;97304.04;;;7.12;87.34
76815;BME280;65768;49.906;19.384;2022-12-24T06:21:20;97309.23;;;7.03;87.63
76815;BME280;65768;49.906;19.384;2022-12-24T06:23:48;97308.89;;;7.04;87.32
76815;BME280;65768;49.906;19.384;2022-12-24T06:26:19;97313.73;;;7.11;87.08
76815;BME280;65768;49.906;19.384;2022-12-24T06:28:48;97315.13;;;7.11;86.90
76815;BME280;65768;49.906;19.384;2022-12-24T06:31:19;97313.75;;;7.08;87.05
76815;BME280;65768;49.906;19.384;2022-12-24T06:33:48;97319.80;;;7.18;86.98
76815;BME280;65768;49.906;19.384;2022-12-24T06:36:19;97328.80;;;7.31;86.86
76815;BME280;65768;49.906;19.384;2022-12-24T06:38:48;97328.64;;;7.28;86.46
76815;BME280;65768;49.906;19.384;2022-12-24T06:41:18;97328.98;;;7.23;86.54
76815;BME280;65768;49.906;19.384;2022-12-24T06:43:48;97333.14;;;7.25;86.29
76815;BME280;65768;49.906;19.384;2022-12-24T06:46:18;97331.58;;;7.26;86.41
76815;BME280;65768;49.906;19.384;2022-12-24T06:48:47;97333.30;;;7.36;86.16
76815;BME280;65768;49.906;19.384;2022-12-24T06:51:16;97336.45;;;7.19;86.10
76815;BME280;65768;49.906;19.384;2022-12-24T06:53:47;97348.74;;;7.18;86.10
76815;BME280;65768;49.906;19.384;2022-12-24T06:56:19;97345.27;;;7.27;85.78
76815;BME280;65768;49.906;19.384;2022-12-24T06:58:47;97346.66;;;7.28;85.91
76815;BME280;65768;49.906;19.384;2022-12-24T07:01:17;97355.67;;;7.37;84.98
76815;BME280;65768;49.906;19.384;2022-12-24T07:03:46;97351.33;;;7.47;84.86
76815;BME280;65768;49.906;19.384;2022-12-24T07:06:18;97357.22;;;7.37;85.06
76815;BME280;65768;49.906;19.384;2022-12-24T07:08:46;97365.20;;;7.44;84.82
76815;BME280;65768;49.906;19.384;2022-12-24T07:11:15;97371.96;;;7.38;84.50
76815;BME280;65768;49.906;19.384;2022-12-24T07:13:45;97369.71;;;7.42;84.66
76815;BME280;65768;49.906;19.384;2022-12-24T07:16:14;97371.44;;;7.45;84.49
76815;BME280;65768;49.906;19.384;2022-12-24T07:18:42;97374.02;;;7.51;83.99
76815;BME280;65768;49.906;19.384;2022-12-24T07:21:11;97379.58;;;7.52;84.17
76815;BME280;65768;49.906;19.384;2022-12-24T07:23:39;97374.38;;;7.50;84.08
76815;BME280;65768;49.906;19.384;2022-12-24T07:26:07;97382.52;;;7.55;83.78
76815;BME280;65768;49.906;19.384;2022-12-24T07:28:35;97385.14;;;7.47;83.79
76815;BME280;65768;49.906;19.384;2022-12-24T07:31:03;97384.42;;;7.51;83.99
76815;BME280;65768;49.906;19.384;2022-12-24T07:33:31;97382.01;;;7.52;83.50
76815;BME280;65768;49.906;19.384;2022-12-24T07:36:07;97396.04;;;7.55;83.63
76815;BME280;65768;49.906;19.384;2022-12-24T07:38:37;97400.39;;;7.55;83.05
76815;BME280;65768;49.906;19.384;2022-12-24T07:41:05;97404.37;;;7.61;82.84
76815;BME280;65768;49.906;19.384;2022-12-24T07:43:33;97404.02;;;7.59;82.77
76815;BME280;65768;49.906;19.384;2022-12-24T07:46:01;97407.14;;;7.62;82.26
76815;BME280;65768;49.906;19.384;2022-12-24T07:48:31;97408.54;;;7.59;82.72
76815;BME280;65768;49.906;19.384;2022-12-24T07:51:00;97418.42;;;7.48;82.93
76815;BME280;65768;49.906;19.384;2022-12-24T07:53:29;97411.14;;;7.54;82.31
76815;BME280;65768;49.906;19.384;2022-12-24T07:55:58;97411.14;;;7.52;82.47
76815;BME280;65768;49.906;19.384;2022-12-24T07:58:26;97413.56;;;7.58;82.39
76815;BME280;65768;49.906;19.384;2022-12-24T08:00:58;97419.96;;;7.67;82.06
76815;BME280;65768;49.906;19.384;2022-12-24T08:03:27;97421.54;;;7.75;81.52
76815;BME280;65768;49.906;19.384;2022-12-24T08:05:55;97418.39;;;7.80;81.56
76815;BME280;65768;49.906;19.384;2022-12-24T08:08:24;97427.77;;;7.82;81.25
76815;BME280;65768;49.906;19.384;2022-12-24T08:10:53;97431.94;;;7.75;81.22
76815;BME280;65768;49.906;19.384;2022-12-24T08:13:21;97437.96;;;7.99;80.82
76815;BME280;65768;49.906;19.384;2022-12-24T08:15:49;97431.75;;;7.88;81.28
76815;BME280;65768;49.906;19.384;2022-12-24T08:18:17;97425.66;;;7.90;80.72
76815;BME280;65768;49.906;19.384;2022-12-24T08:20:45;97433.28;;;7.97;80.53
76815;BME280;65768;49.906;19.384;2022-12-24T08:23:14;97435.68;;;8.10;80.21
76815;BME280;65768;49.906;19.384;2022-12-24T08:25:44;97441.91;;;8.19;80.15
76815;BME280;65768;49.906;19.384;2022-12-24T08:28:17;97432.91;;;8.04;79.84
76815;BME280;65768;49.906;19.384;2022-12-24T08:30:48;97444.52;;;8.12;80.12
76815;BME280;65768;49.906;19.384;2022-12-24T08:33:16;97444.72;;;8.03;80.24
76815;BME280;65768;49.906;19.384;2022-12-24T08:35:52;97453.22;;;8.04;80.11
76815;BME280;65768;49.906;19.384;2022-12-24T08:38:21;97456.52;;;8.08;79.93
76815;BME280;65768;49.906;19.384;2022-12-24T08:40:52;97459.80;;;8.06;80.21
76815;BME280;65768;49.906;19.384;2022-12-24T08:43:21;97460.34;;;8.08;79.91
76815;BME280;65768;49.906;19.384;2022-12-24T08:45:49;97465.19;;;8.10;79.68
76815;BME280;65768;49.906;19.384;2022-12-24T08:48:17;97469.70;;;8.16;79.57
76815;BME280;65768;49.906;19.384;2022-12-24T08:50:45;97474.56;;;8.13;79.72
76815;BME280;65768;49.906;19.384;2022-12-24T08:53:13;97478.90;;;8.10;79.59
76815;BME280;65768;49.906;19.384;2022-12-24T08:55:41;97476.15;;;7.99;79.95
76815;BME280;65768;49.906;19.384;2022-12-24T08:58:09;97481.34;;;8.05;79.64
76815;BME280;65768;49.906;19.384;2022-12-24T09:00:37;97484.09;;;8.19;79.18
76815;BME280;65768;49.906;19.384;2022-12-24T09:03:05;97474.86;;;8.31;78.72
76815;BME280;65768;49.906;19.384;2022-12-24T09:05:33;97484.06;;;8.31;78.66
76815;BME280;65768;49.906;19.384;2022-12-24T09:08:06;97485.80;;;8.37;78.38
76815;BME280;65768;49.906;19.384;2022-12-24T09:10:34;97487.70;;;8.39;78.59
76815;BME280;65768;49.906;19.384;2022-12-24T09:13:02;97489.63;;;8.43;78.21
76815;BME280;65768;49.906;19.384;2022-12-24T09:15:30;97494.14;;;8.44;78.16
76815;BME280;65768;49.906;19.384;2022-12-24T09:17:59;97496.57;;;8.36;78.21
76815;BME280;65768;49.906;19.384;2022-12-24T09:20:28;97501.61;;;8.41;78.02
76815;BME280;65768;49.906;19.384;2022-12-24T09:22:56;97504.55;;;8.32;78.74
76815;BME280;65768;49.906;19.384;2022-12-24T09:25:24;97509.59;;;8.27;78.96
76815;BME280;65768;49.906;19.384;2022-12-24T09:27:53;97506.98;;;8.28;78.67
76815;BME280;65768;49.906;19.384;2022-12-24T09:30:21;97502.12;;;8.30;78.54
76815;BME280;65768;49.906;19.384;2022-12-24T09:32:50;97497.45;;;8.23;78.59
76815;BME280;65768;49.906;19.384;2022-12-24T09:35:18;97509.27;;;8.19;79.00
76815;BME280;65768;49.906;19.384;2022-12-24T09:37:47;97510.11;;;8.26;78.63
76815;BME280;65768;49.906;19.384;2022-12-24T09:40:23;97516.70;;;8.29;78.37
76815;BME280;65768;49.906;19.384;2022-12-24T09:42:53;97517.06;;;8.26;78.60
76815;BME280;65768;49.906;19.384;2022-12-24T09:45:25;97529.21;;;8.24;78.28
76815;BME280;65768;49.906;19.384;2022-12-24T09:48:08;97536.86;;;8.17;78.71
76815;BME280;65768;49.906;19.384;2022-12-24T09:50:51;97537.58;;;8.17;78.44
76815;BME280;65768;49.906;19.384;2022-12-24T09:56:03;97550.23;;;8.16;78.32
76815;BME280;65768;49.906;19.384;2022-12-24T09:58:38;97555.63;;;8.20;78.08
76815;BME280;65768;49.906;19.384;2022-12-24T10:01:11;97554.41;;;8.12;78.30
76815;BME280;65768;49.906;19.384;2022-12-24T10:03:40;97556.15;;;8.05;78.53
76815;BME280;65768;49.906;19.384;2022-12-24T10:09:08;97562.05;;;8.05;78.04
76815;BME280;65768;49.906;19.384;2022-12-24T10:14:46;97573.33;;;8.07;78.53
76815;BME280;65768;49.906;19.384;2022-12-24T10:23:06;97565.69;;;7.83;80.12
76815;BME280;65768;49.906;19.384;2022-12-24T10:28:18;97571.06;;;7.77;79.93
76815;BME280;65768;49.906;19.384;2022-12-24T10:30:51;97574.00;;;7.76;80.24
76815;BME280;65768;49.906;19.384;2022-12-24T10:33:48;97578.00;;;7.75;80.39
76815;BME280;65768;49.906;19.384;2022-12-24T10:36:22;97580.07;;;7.75;80.44
76815;BME280;65768;49.906;19.384;2022-12-24T10:38:55;97584.42;;;7.76;80.45
76815;BME280;65768;49.906;19.384;2022-12-24T10:41:25;97589.79;;;7.72;80.40
76815;BME280;65768;49.906;19.384;2022-12-24T10:43:55;97593.78;;;7.69;80.73
76815;BME280;65768;49.906;19.384;2022-12-24T10:46:35;97598.11;;;7.69;81.03
76815;BME280;65768;49.906;19.384;2022-12-24T10:49:06;97595.83;;;7.59;81.00
76815;BME280;65768;49.906;19.384;2022-12-24T10:54:23;97605.23;;;7.65;81.00
76815;BME280;65768;49.906;19.384;2022-12-24T10:56:56;97608.16;;;7.63;81.37
76815;BME280;65768;49.906;19.384;2022-12-24T11:01:59;97612.69;;;7.67;81.09
76815;BME280;65768;49.906;19.384;2022-12-24T11:04:30;97606.78;;;7.67;80.71
76815;BME280;65768;49.906;19.384;2022-12-24T11:07:04;97613.55;;;7.71;80.62
76815;BME280;65768;49.906;19.384;2022-12-24T11:09:35;97616.50;;;7.67;80.50
76815;BME280;65768;49.906;19.384;2022-12-24T11:12:16;97618.76;;;7.69;80.57
76815;BME280;65768;49.906;19.384;2022-12-24T11:14:47;97615.98;;;7.65;80.49
76815;BME280;65768;49.906;19.384;2022-12-24T11:17:19;97613.21;;;7.75;79.63
76815;BME280;65768;49.906;19.384;2022-12-24T11:19:49;97619.13;;;7.79;79.35
76815;BME280;65768;49.906;19.384;2022-12-24T11:22:24;97625.02;;;7.78;79.56
76815;BME280;65768;49.906;19.384;2022-12-24T11:25:20;97633.88;;;7.80;79.16
76815;BME280;65768;49.906;19.384;2022-12-24T11:27:50;97635.94;;;7.72;79.59
76815;BME280;65768;49.906;19.384;2022-12-24T11:30:28;97645.82;;;7.71;79.44
76815;BME280;65768;49.906;19.384;2022-12-24T11:35:31;97659.68;;;7.68;79.68
76815;BME280;65768;49.906;19.384;2022-12-24T11:40:33;97646.52;;;7.75;79.07
76815;BME280;65768;49.906;19.384;2022-12-24T11:43:04;97655.55;;;7.77;79.14
76815;BME280;65768;49.906;19.384;2022-12-24T11:45:33;97657.98;;;7.80;78.61
76815;BME280;65768;49.906;19.384;2022-12-24T11:48:01;97660.58;;;7.79;78.79
76815;BME280;65768;49.906;19.384;2022-12-24T11:50:36;97659.39;;;7.87;78.42
76815;BME280;65768;49.906;19.384;2022-12-24T11:53:23;97664.95;;;7.87;78.20
76815;BME280;65768;49.906;19.384;2022-12-24T11:55:56;97671.04;;;7.96;77.74
76815;BME280;65768;49.906;19.384;2022-12-24T11:58:45;97673.29;;;7.97;77.91
76815;BME280;65768;49.906;19.384;2022-12-24T12:04:14;97689.95;;;7.94;77.78
76815;BME280;65768;49.906;19.384;2022-12-24T12:06:44;97688.38;;;7.93;77.71
76815;BME280;65768;49.906;19.384;2022-12-24T12:09:26;97689.06;;;7.89;77.88
76815;BME280;65768;49.906;19.384;2022-12-24T12:12:06;97691.14;;;7.85;77.92
76815;BME280;65768;49.906;19.384;2022-12-24T12:14:42;97691.15;;;7.85;78.02
76815;BME280;65768;49.906;19.384;2022-12-24T12:20:10;97700.68;;;7.89;77.31
76815;BME280;65768;49.906;19.384;2022-12-24T12:25:24;97710.94;;;7.90;77.41
76815;BME280;65768;49.906;19.384;2022-12-24T12:27:57;97719.27;;;7.93;77.40
76815;BME280;65768;49.906;19.384;2022-12-24T12:30:28;97725.32;;;7.87;77.43
76815;BME280;65768;49.906;19.384;2022-12-24T12:35:49;97752.37;;;7.79;77.68
76815;BME280;65768;49.906;19.384;2022-12-24T12:38:24;97755.11;;;7.73;78.48
76815;BME280;65768;49.906;19.384;2022-12-24T12:54:47;97786.71;;;7.43;80.48
76815;BME280;65768;49.906;19.384;2022-12-24T12:57:18;97790.71;;;7.46;79.83
76815;BME280;65768;49.906;19.384;2022-12-24T13:00:00;97789.34;;;7.47;80.17
76815;BME280;65768;49.906;19.384;2022-12-24T13:11:04;97827.51;;;7.25;82.40
76815;BME280;65768;49.906;19.384;2022-12-24T13:19:32;97844.41;;;7.12;83.29
76815;BME280;65768;49.906;19.384;2022-12-24T13:22:14;97850.94;;;7.05;83.83
76815;BME280;65768;49.906;19.384;2022-12-24T13:24:55;97857.28;;;6.98;84.32
76815;BME280;65768;49.906;19.384;2022-12-24T13:27:30;97862.61;;;6.93;84.51
76815;BME280;65768;49.906;19.384;2022-12-24T13:30:02;97866.38;;;6.88;85.07
76815;BME280;65768;49.906;19.384;2022-12-24T13:32:45;97873.90;;;6.79;85.64
76815;BME280;65768;49.906;19.384;2022-12-24T13:37:46;97882.47;;;6.68;86.33
76815;BME280;65768;49.906;19.384;2022-12-24T13:40:24;97884.50;;;6.64;86.44
76815;BME280;65768;49.906;19.384;2022-12-24T13:50:36;97886.23;;;6.47;86.95
76815;BME280;65768;49.906;19.384;2022-12-24T13:58:40;97897.86;;;6.51;86.23
76815;BME280;65768;49.906;19.384;2022-12-24T14:01:12;97905.36;;;6.55;86.02
76815;BME280;65768;49.906;19.384;2022-12-24T14:03:50;97906.73;;;6.55;85.85
76815;BME280;65768;49.906;19.384;2022-12-24T14:06:21;97914.37;;;6.56;85.92
76815;BME280;65768;49.906;19.384;2022-12-24T14:08:53;97913.90;;;6.61;85.71
76815;BME280;65768;49.906;19.384;2022-12-24T14:11:25;97916.69;;;6.62;85.57
76815;BME280;65768;49.906;19.384;2022-12-24T14:16:43;97926.48;;;6.69;84.87
76815;BME280;65768;49.906;19.384;2022-12-24T14:19:24;97925.11;;;6.72;84.71
76815;BME280;65768;49.906;19.384;2022-12-24T14:22:12;97927.70;;;6.71;84.54
76815;BME280;65768;49.906;19.384;2022-12-24T14:24:42;97928.10;;;6.77;83.79
76815;BME280;65768;49.906;19.384;2022-12-24T14:27:16;97934.78;;;6.85;83.48
76815;BME280;65768;49.906;19.384;2022-12-24T14:29:55;97938.42;;;6.86;83.29
76815;BME280;65768;49.906;19.384;2022-12-24T14:32:39;97945.36;;;6.86;83.41
76815;BME280;65768;49.906;19.384;2022-12-24T14:35:36;97943.78;;;6.84;83.18
76815;BME280;65768;49.906;19.384;2022-12-24T14:38:15;97954.96;;;6.93;82.63
76815;BME280;65768;49.906;19.384;2022-12-24T14:40:54;97959.52;;;6.99;82.30
76815;BME280;65768;49.906;19.384;2022-12-24T14:43:55;97962.08;;;6.94;82.56
76815;BME280;65768;49.906;19.384;2022-12-24T14:46:39;97968.23;;;6.87;82.77
76815;BME280;65768;49.906;19.384;2022-12-24T14:49:29;97975.31;;;6.84;82.79
76815;BME280;65768;49.906;19.384;2022-12-24T14:54:51;97984.34;;;7.02;81.76
76815;BME280;65768;49.906;19.384;2022-12-24T14:57:22;97984.75;;;7.08;81.30
76815;BME280;65768;49.906;19.384;2022-12-24T14:59:59;97989.80;;;7.11;81.03
76815;BME280;65768;49.906;19.384;2022-12-24T15:05:18;97992.78;;;6.97;80.99
76815;BME280;65768;49.906;19.384;2022-12-24T15:07:53;98007.18;;;6.98;81.27
76815;BME280;65768;49.906;19.384;2022-12-24T15:10:27;98013.70;;;6.94;81.14
76815;BME280;65768;49.906;19.384;2022-12-24T15:13:01;98020.52;;;6.99;80.77
76815;BME280;65768;49.906;19.384;2022-12-24T15:15:30;98024.80;;;7.09;80.40
76815;BME280;65768;49.906;19.384;2022-12-24T15:18:02;98027.81;;;7.15;79.92
76815;BME280;65768;49.906;19.384;2022-12-24T15:20:31;98029.77;;;7.20;79.86